createdAt,value
2022-12-24T00:54:58.796Z,26.28
2022-12-24T00:55:59.751Z,26.31
2022-12-24T00:56:59.723Z,26.30
2022-12-24T00:57:59.707Z,26.34
2022-12-24T00:58:59.681Z,26.30
2022-12-24T00:59:59.677Z,26.30
2022-12-24T01:00:59.682Z,26.28
2022-12-24T01:01:59.741Z,26.26
2022-12-24T01:02:59.804Z,26.29
2022-12-24T01:03:59.606Z,26.28
2022-12-24T01:04:59.587Z,26.29
2022-12-24T01:05:59.566Z,26.33
2022-12-24T01:06:59.553Z,26.30
2022-12-24T01:07:59.542Z,26.25
2022-12-24T01:08:59.535Z,26.29
2022-12-24T01:09:59.517Z,26.26
2022-12-24T01:10:59.539Z,26.30
2022-12-24T01:11:59.498Z,26.26
2022-12-24T01:12:59.487Z,26.30
2022-12-24T01:13:59.471Z,26.26
2022-12-24T02:46:58.331Z,26.37
2022-12-24T02:47:58.202Z,26.43
2022-12-24T02:58:58.074Z,26.33
2022-12-24T02:59:58.058Z,26.46
2022-12-24T03:00:58.099Z,26.40
2022-12-24T03:01:58.198Z,26.40
2022-12-24T03:02:58.135Z,26.40
2022-12-24T03:03:58.014Z,26.39
2022-12-24T03:04:58.015Z,26.39
2022-12-24T03:05:58.002Z,26.46
2022-12-24T03:06:57.994Z,26.39
2022-12-24T03:07:57.978Z,26.41
2022-12-24T03:08:57.967Z,26.39
2022-12-24T03:09:57.970Z,26.39
2022-12-24T03:10:57.953Z,26.44
2022-12-24T03:11:57.936Z,26.41
2022-12-24T03:12:57.932Z,26.40
2022-12-24T03:13:57.924Z,26.39
2022-12-24T03:14:57.925Z,26.43
2022-12-24T03:15:57.924Z,26.37
2022-12-24T03:16:57.892Z,26.44
2022-12-24T03:17:57.886Z,26.43
2022-12-24T03:18:57.909Z,26.41
2022-12-24T03:19:57.868Z,26.43
2022-12-24T03:20:57.883Z,26.43
2022-12-24T03:21:57.845Z,26.43
2022-12-24T03:22:57.829Z,26.46
2022-12-24T03:23:57.817Z,26.41
2022-12-24T03:24:57.808Z,26.44
2022-12-24T03:25:57.801Z,26.43
2022-12-24T03:26:57.790Z,26.50
2022-12-24T03:27:57.771Z,26.40
2022-12-24T03:28:57.800Z,26.48
2022-12-24T03:29:57.745Z,26.44
2022-12-24T03:30:57.732Z,26.46
2022-12-24T03:31:57.806Z,26.44
2022-12-24T03:32:57.709Z,26.44
2022-12-24T03:33:57.697Z,26.49
2022-12-24T03:46:57.557Z,26.46
2022-12-24T03:47:57.541Z,26.46
2022-12-24T03:48:57.531Z,26.43
2022-12-24T03:49:57.506Z,26.41
2022-12-24T03:50:57.524Z,26.45
2022-12-24T03:51:57.484Z,26.41
2022-12-24T03:52:57.472Z,26.39
2022-12-24T03:53:57.482Z,26.40
2022-12-24T03:54:57.455Z,26.45
2022-12-24T03:55:57.461Z,26.47
2022-12-24T03:56:57.448Z,26.43
2022-12-24T03:57:57.433Z,26.40
2022-12-24T03:58:57.420Z,26.43
2022-12-24T03:59:57.412Z,26.41
2022-12-24T04:00:57.480Z,26.43
2022-12-24T04:01:57.584Z,26.49
2022-12-24T04:02:57.434Z,26.46
2022-12-24T22:41:48.594Z,26.60
